Time;durP1;ratioP1;P1;durP2;ratioP2;P2;SDS_P1;SDS_P2;PMS_P1;PMS_P2;Temp;Humidity;BMP_temperature;BMP_pressure;BME280_temperature;BME280_humidity;BME280_pressure;Samples;Min_cycle;Max_cycle;Signal;HPM_P1;HPM_P2
2022/10/27 00:01:26;;;;;;;15.07;9.13;;;11.30;99.90;;;;;;5089393;28;20122;-46
2022/10/27 00:03:51;;;;;;;16.02;9.15;;;11.70;99.90;;;;;;5089682;28;20052;-47
2022/10/27 00:06:17;;;;;;;19.23;8.80;;;12.20;99.90;;;;;;5089986;28;20040;-48
2022/10/27 00:08:43;;;;;;;16.05;8.48;;;11.10;99.90;;;;;;5090147;28;20036;-47
2022/10/27 00:11:09;;;;;;;19.10;9.20;;;11.60;99.90;;;;;;5089853;28;20093;-47
2022/10/27 00:13:35;;;;;;;16.58;9.02;;;11.30;99.90;;;;;;5088827;28;20043;-48
2022/10/27 00:16:06;;;;;;;19.20;9.57;;;11.10;99.90;;;;;;5087829;28;20066;-47
2022/10/27 00:18:32;;;;;;;19.83;9.23;;;11.20;99.90;;;;;;5086785;28;20044;-47
2022/10/27 00:20:58;;;;;;;17.67;8.90;;;11.20;99.90;;;;;;5088436;28;20047;-48
2022/10/27 00:23:23;;;;;;;19.27;9.93;;;11.20;99.90;;;;;;5087955;28;20098;-48
2022/10/27 00:25:55;;;;;;;18.35;9.95;;;11.80;99.90;;;;;;5087750;28;20047;-48
2022/10/27 00:28:21;;;;;;;19.30;9.68;;;11.30;99.90;;;;;;5087168;28;20051;-48
2022/10/27 00:30:47;;;;;;;17.70;9.95;;;12.00;99.90;;;;;;5088018;28;20028;-47
2022/10/27 00:33:13;;;;;;;23.10;10.40;;;11.50;99.90;;;;;;5087338;28;20430;-48
2022/10/27 00:35:38;;;;;;;18.70;10.40;;;11.20;99.90;;;;;;5067914;28;20063;-46
2022/10/27 00:38:04;;;;;;;16.55;10.32;;;11.20;99.90;;;;;;5068237;28;20040;-47
2022/10/27 00:40:36;;;;;;;17.27;9.82;;;11.60;99.90;;;;;;5067558;28;20040;-48
2022/10/27 00:43:02;;;;;;;27.55;11.73;;;11.70;99.90;;;;;;5067992;28;20055;-47
2022/10/27 00:45:27;;;;;;;21.90;11.30;;;11.60;99.90;;;;;;5067700;28;20580;-46
2022/10/27 00:47:53;;;;;;;23.38;10.55;;;11.20;99.90;;;;;;5067261;28;20051;-46
2022/10/27 00:50:24;;;;;;;20.25;11.10;;;12.10;99.90;;;;;;5083190;28;20158;-46
2022/10/27 00:52:54;;;;;;;22.63;11.00;;;11.50;99.90;;;;;;5067499;28;20032;-48
2022/10/27 00:55:33;;;;;;;18.25;11.02;;;11.60;99.90;;;;;;5067231;28;20045;-47
2022/10/27 00:58:03;;;;;;;20.17;10.63;;;11.30;99.90;;;;;;5067857;28;20052;-47
2022/10/27 01:00:30;;;;;;;34.47;12.60;;;11.70;99.90;;;;;;5067505;28;20044;-48
2022/10/27 01:02:56;;;;;;;23.73;11.80;;;12.50;99.90;;;;;;5068043;28;20554;-49
2022/10/27 01:05:25;;;;;;;27.48;12.85;;;11.70;99.90;;;;;;5067872;28;20186;-47
2022/10/27 01:07:56;;;;;;;23.30;12.02;;;12.30;99.90;;;;;;5068473;28;20059;-48
2022/10/27 01:10:22;;;;;;;21.17;12.13;;;11.50;99.90;;;;;;5067469;28;20044;-48
2022/10/27 01:12:48;;;;;;;28.33;13.82;;;11.90;99.90;;;;;;5066923;28;20393;-46
2022/10/27 01:15:15;;;;;;;28.67;14.38;;;12.00;99.90;;;;;;5067707;28;20556;-48
2022/10/27 01:18:18;;;;;;;30.17;13.00;;;11.60;99.90;;;;;;5067253;28;20045;-46
2022/10/27 01:20:50;;;;;;;21.38;12.05;;;11.60;99.90;;;;;;5044193;28;20072;-48
2022/10/27 01:23:56;;;;;;;26.90;12.90;;;11.50;99.90;;;;;;5064056;28;20041;-47
2022/10/27 01:26:37;;;;;;;24.65;12.88;;;11.60;99.90;;;;;;5067240;28;20601;-49
2022/10/27 01:29:40;;;;;;;23.35;12.02;;;11.60;99.90;;;;;;5067533;28;20037;-49
2022/10/27 01:32:08;;;;;;;24.42;12.82;;;11.50;99.90;;;;;;5067992;28;20494;-51
2022/10/27 01:34:45;;;;;;;30.00;13.23;;;11.50;99.90;;;;;;5080200;28;20044;-47
2022/10/27 01:37:18;;;;;;;23.63;12.10;;;11.90;99.90;;;;;;5087733;28;20044;-47
2022/10/27 01:39:55;;;;;;;25.45;13.27;;;11.90;99.90;;;;;;5087084;28;20064;-47
2022/10/27 01:42:47;;;;;;;22.92;14.05;;;11.60;99.90;;;;;;5086785;28;20096;-47
2022/10/27 01:45:15;;;;;;;27.27;12.77;;;11.60;99.90;;;;;;5086926;28;20044;-47
2022/10/27 01:47:41;;;;;;;32.33;14.38;;;11.60;99.90;;;;;;5087237;28;20464;-49
2022/10/27 01:50:08;;;;;;;29.02;13.55;;;12.30;99.90;;;;;;5087234;28;20439;-47
2022/10/27 01:52:39;;;;;;;29.45;14.25;;;11.70;99.90;;;;;;5087092;28;20044;-47
2022/10/27 01:55:18;;;;;;;28.70;14.05;;;11.80;99.90;;;;;;5087268;28;20083;-47
2022/10/27 01:57:47;;;;;;;23.38;13.05;;;11.80;99.90;;;;;;5086992;28;20548;-47
2022/10/27 02:00:13;;;;;;;30.52;14.45;;;11.80;99.90;;;;;;5086739;28;20040;-48
2022/10/27 02:02:56;;;;;;;27.10;15.00;;;11.90;99.90;;;;;;5087436;28;20094;-47
2022/10/27 02:05:47;;;;;;;24.10;14.00;;;12.50;99.90;;;;;;5087436;28;20493;-47
2022/10/27 02:08:36;;;;;;;27.20;14.85;;;12.00;99.90;;;;;;5090993;28;20080;-48
2022/10/27 02:11:05;;;;;;;33.10;15.88;;;12.00;99.90;;;;;;5091112;28;20036;-47
2022/10/27 02:13:33;;;;;;;33.42;15.23;;;12.10;99.90;;;;;;5090368;28;20044;-47
2022/10/27 02:16:03;;;;;;;28.20;13.48;;;12.10;99.90;;;;;;5090598;28;20121;-47
2022/10/27 02:18:32;;;;;;;31.77;15.15;;;12.40;99.90;;;;;;5090880;28;20485;-47
2022/10/27 02:21:04;;;;;;;32.05;15.30;;;12.20;99.90;;;;;;5090836;28;20116;-48
2022/10/27 02:23:30;;;;;;;28.52;15.85;;;12.20;99.90;;;;;;5090707;28;20052;-47
2022/10/27 02:26:17;;;;;;;29.98;15.57;;;12.30;99.90;;;;;;5090743;28;20461;-47
2022/10/27 02:28:50;;;;;;;28.60;13.80;;;12.30;99.90;;;;;;5091569;28;20040;-48
2022/10/27 02:31:19;;;;;;;23.50;13.07;;;12.30;99.90;;;;;;5090634;28;20044;-47
2022/10/27 02:33:46;;;;;;;27.98;14.50;;;12.60;99.90;;;;;;5084816;28;20136;-48
2022/10/27 02:36:11;;;;;;;22.95;13.65;;;12.80;99.90;;;;;;5069912;28;20638;-48
2022/10/27 02:38:37;;;;;;;26.60;14.50;;;12.80;99.90;;;;;;5070145;28;20045;-47
2022/10/27 02:41:03;;;;;;;27.30;12.40;;;12.70;99.90;;;;;;5069277;28;20040;-49
2022/10/27 02:43:28;;;;;;;26.58;12.35;;;12.40;99.90;;;;;;5070178;28;20540;-48
2022/10/27 02:45:54;;;;;;;26.75;13.55;;;12.30;99.90;;;;;;5069997;28;20092;-48
2022/10/27 02:48:19;;;;;;;24.02;13.40;;;12.80;99.90;;;;;;5070256;28;20460;-47
2022/10/27 02:50:45;;;;;;;26.02;13.27;;;12.70;99.90;;;;;;5068229;28;20044;-47
2022/10/27 02:53:11;;;;;;;23.10;13.23;;;12.30;99.90;;;;;;5068471;28;20044;-47
2022/10/27 02:55:36;;;;;;;22.30;13.45;;;13.20;99.90;;;;;;5069777;28;20055;-47
2022/10/27 02:58:02;;;;;;;19.45;12.75;;;12.60;99.90;;;;;;5069636;28;20084;-48
2022/10/27 03:00:28;;;;;;;23.35;12.52;;;12.30;99.90;;;;;;5069750;28;20084;-48
2022/10/27 03:02:53;;;;;;;27.63;13.68;;;13.30;99.90;;;;;;5069375;28;20052;-47
2022/10/27 03:05:19;;;;;;;19.75;12.10;;;12.80;99.90;;;;;;5069783;28;20045;-48
2022/10/27 03:07:45;;;;;;;23.25;12.32;;;12.50;99.90;;;;;;5070237;28;20047;-47
2022/10/27 03:10:10;;;;;;;28.63;12.63;;;12.30;99.90;;;;;;5069174;28;20047;-48
2022/10/27 03:12:36;;;;;;;28.33;12.75;;;12.80;99.90;;;;;;5069460;28;20053;-47
2022/10/27 03:15:02;;;;;;;24.85;12.38;;;12.50;99.90;;;;;;5069852;28;20123;-48
2022/10/27 03:17:27;;;;;;;24.38;12.25;;;12.30;99.90;;;;;;5069492;28;20455;-50
2022/10/27 03:19:53;;;;;;;28.70;14.45;;;12.60;99.90;;;;;;5069153;28;20055;-47
2022/10/27 03:22:18;;;;;;;22.65;13.25;;;12.60;99.90;;;;;;5069780;28;20055;-46
2022/10/27 03:24:44;;;;;;;25.67;12.95;;;12.40;99.90;;;;;;5069314;28;20048;-47
2022/10/27 03:27:10;;;;;;;30.52;14.60;;;12.30;99.90;;;;;;5068924;28;20098;-47
2022/10/27 03:29:35;;;;;;;24.92;12.00;;;12.50;99.90;;;;;;5069684;28;20535;-48
2022/10/27 03:32:01;;;;;;;20.42;12.65;;;12.40;99.90;;;;;;5069555;28;20041;-47
2022/10/27 03:34:27;;;;;;;21.63;12.63;;;12.50;99.90;;;;;;5081160;28;20050;-47
2022/10/27 03:36:52;;;;;;;25.70;13.57;;;12.40;99.90;;;;;;5089864;28;20143;-47
2022/10/27 03:39:18;;;;;;;26.48;12.88;;;12.70;99.90;;;;;;5089832;28;20044;-47
2022/10/27 03:41:44;;;;;;;24.50;14.35;;;12.80;99.90;;;;;;5089222;28;20441;-47
2022/10/27 03:44:09;;;;;;;23.20;14.48;;;12.40;99.90;;;;;;5089206;28;20051;-50
2022/10/27 03:46:35;;;;;;;21.52;13.45;;;12.50;99.90;;;;;;5089530;28;20143;-47
2022/10/27 03:49:00;;;;;;;24.10;13.70;;;12.30;99.90;;;;;;5090131;28;20067;-47
2022/10/27 03:51:27;;;;;;;25.55;13.52;;;12.50;99.90;;;;;;5089832;28;20040;-47
2022/10/27 03:53:53;;;;;;;21.92;12.65;;;12.30;99.90;;;;;;5089543;28;20089;-47
2022/10/27 03:56:19;;;;;;;30.42;13.80;;;12.60;99.90;;;;;;5089890;28;20052;-47
2022/10/27 03:58:44;;;;;;;26.13;13.90;;;12.30;99.90;;;;;;5089413;28;20043;-47
2022/10/27 04:01:11;;;;;;;20.77;12.30;;;12.30;99.90;;;;;;5088898;28;20084;-47
2022/10/27 04:03:36;;;;;;;21.23;14.05;;;12.40;99.90;;;;;;5089115;28;20097;-47
2022/10/27 04:06:02;;;;;;;32.97;15.00;;;12.20;99.90;;;;;;5088776;28;20080;-48
2022/10/27 04:08:27;;;;;;;24.90;14.27;;;12.20;99.90;;;;;;5089730;28;20127;-51
2022/10/27 04:10:53;;;;;;;24.48;13.68;;;12.20;99.90;;;;;;5088445;28;20500;-47
2022/10/27 04:13:19;;;;;;;23.35;14.32;;;12.40;99.90;;;;;;5088607;28;20351;-47
2022/10/27 04:15:44;;;;;;;32.55;14.02;;;12.50;99.90;;;;;;5088417;28;20040;-48
2022/10/27 04:18:10;;;;;;;25.00;13.35;;;12.50;99.90;;;;;;5089385;28;20393;-48
2022/10/27 04:20:36;;;;;;;26.67;14.05;;;12.50;99.90;;;;;;5088645;28;20047;-49
2022/10/27 04:23:02;;;;;;;21.55;13.48;;;12.40;99.90;;;;;;5088476;28;20048;-48
2022/10/27 04:25:28;;;;;;;25.25;14.13;;;12.70;99.90;;;;;;5088453;28;20059;-47
2022/10/27 04:28:07;;;;;;;25.00;14.95;;;12.40;99.90;;;;;;5089049;28;20036;-47
2022/10/27 04:30:33;;;;;;;26.10;14.25;;;12.20;99.90;;;;;;5088147;28;20052;-47
2022/10/27 04:32:59;;;;;;;32.08;15.52;;;12.20;99.90;;;;;;5088278;28;20040;-47
2022/10/27 04:35:25;;;;;;;28.65;15.02;;;12.60;99.90;;;;;;5068730;28;20477;-47
2022/10/27 04:37:53;;;;;;;26.75;15.45;;;12.20;99.90;;;;;;5068147;28;20032;-49
2022/10/27 04:40:19;;;;;;;26.73;16.17;;;12.30;99.90;;;;;;5068365;28;20055;-48
2022/10/27 04:42:48;;;;;;;24.38;15.35;;;12.40;99.90;;;;;;5067896;28;20382;-47
2022/10/27 04:45:14;;;;;;;27.15;15.60;;;12.30;99.90;;;;;;5067607;28;20048;-47
2022/10/27 04:47:39;;;;;;;29.17;16.35;;;12.10;99.90;;;;;;5066497;28;20069;-47
2022/10/27 04:50:06;;;;;;;30.90;15.27;;;12.10;99.90;;;;;;5068000;28;20036;-47
2022/10/27 04:52:31;;;;;;;24.90;15.73;;;12.10;99.90;;;;;;5068628;28;20056;-48
2022/10/27 04:54:57;;;;;;;27.48;14.25;;;12.10;99.90;;;;;;5068085;28;20055;-48
2022/10/27 04:57:23;;;;;;;21.98;14.45;;;12.60;99.90;;;;;;5067764;28;20779;-46
2022/10/27 04:59:48;;;;;;;31.25;17.58;;;12.40;99.90;;;;;;5067675;28;20036;-47
2022/10/27 05:02:14;;;;;;;30.90;17.95;;;12.10;99.90;;;;;;5067171;28;20436;-47
2022/10/27 05:04:40;;;;;;;24.05;14.93;;;12.30;99.90;;;;;;5067289;28;20558;-47
2022/10/27 05:07:05;;;;;;;27.45;15.77;;;12.40;99.90;;;;;;5067544;28;20503;-47
2022/10/27 05:09:31;;;;;;;23.83;14.48;;;12.60;99.90;;;;;;5067718;28;20063;-48
2022/10/27 05:11:56;;;;;;;31.15;15.63;;;12.50;99.90;;;;;;5067609;28;20098;-47
2022/10/27 05:14:22;;;;;;;31.73;17.10;;;12.10;99.90;;;;;;5067101;28;20718;-50
2022/10/27 05:16:48;;;;;;;27.83;15.32;;;12.10;99.90;;;;;;5067066;28;20036;-48
2022/10/27 05:19:13;;;;;;;26.35;16.20;;;12.30;99.90;;;;;;5067123;28;20048;-47
2022/10/27 05:21:39;;;;;;;28.40;16.85;;;12.10;99.90;;;;;;5067333;28;20040;-47
2022/10/27 05:24:05;;;;;;;26.80;17.00;;;12.00;99.90;;;;;;5067164;28;20046;-47
2022/10/27 05:26:30;;;;;;;29.40;15.93;;;12.00;99.90;;;;;;5067255;28;20058;-47
2022/10/27 05:28:56;;;;;;;27.52;15.40;;;12.60;99.90;;;;;;5067249;28;20532;-47
2022/10/27 05:31:21;;;;;;;28.73;16.27;;;12.00;99.90;;;;;;5067230;28;20504;-47
2022/10/27 05:33:47;;;;;;;26.88;16.42;;;12.10;99.90;;;;;;5067348;28;20037;-47
2022/10/27 05:36:13;;;;;;;28.40;15.90;;;12.20;99.90;;;;;;5067419;28;20040;-47
2022/10/27 05:38:38;;;;;;;30.77;16.98;;;12.40;99.90;;;;;;5067347;28;20484;-47
2022/10/27 05:41:04;;;;;;;26.77;15.95;;;12.30;99.90;;;;;;5066884;28;20044;-47
2022/10/27 05:43:30;;;;;;;32.90;16.85;;;11.90;99.90;;;;;;5066785;28;20094;-47
2022/10/27 05:45:56;;;;;;;25.75;16.27;;;12.10;99.90;;;;;;5066473;28;20063;-47
2022/10/27 05:48:21;;;;;;;23.17;14.90;;;11.90;99.90;;;;;;5067276;28;20044;-47
2022/10/27 05:50:53;;;;;;;25.52;15.18;;;12.00;99.90;;;;;;5067094;28;20067;-48
2022/10/27 05:53:20;;;;;;;29.13;15.10;;;12.20;99.90;;;;;;5067334;28;20032;-46
2022/10/27 05:55:46;;;;;;;21.52;14.40;;;12.70;99.90;;;;;;5067465;28;20110;-48
2022/10/27 05:58:11;;;;;;;28.45;15.05;;;12.00;99.90;;;;;;5066851;28;20048;-47
2022/10/27 06:00:38;;;;;;;27.83;15.27;;;12.40;99.90;;;;;;5066948;28;20086;-47
2022/10/27 06:03:06;;;;;;;27.02;14.60;;;12.20;99.90;;;;;;5067066;28;20490;-47
2022/10/27 06:05:35;;;;;;;22.48;14.43;;;11.90;99.90;;;;;;5066904;28;20059;-47
2022/10/27 06:08:01;;;;;;;25.98;14.68;;;12.20;99.90;;;;;;5067056;28;20051;-47
2022/10/27 06:10:30;;;;;;;27.73;14.90;;;12.10;99.90;;;;;;5066657;28;20032;-46
2022/10/27 06:13:03;;;;;;;23.60;14.15;;;11.90;99.90;;;;;;5066573;28;20058;-46
2022/10/27 06:15:30;;;;;;;22.10;13.40;;;12.20;99.90;;;;;;5066807;28;20048;-46
2022/10/27 06:17:55;;;;;;;24.67;14.40;;;12.10;99.90;;;;;;5066958;28;20058;-47
2022/10/27 06:20:21;;;;;;;21.23;13.55;;;12.00;99.90;;;;;;5065038;28;20489;-47
2022/10/27 06:22:47;;;;;;;26.10;14.25;;;11.90;99.90;;;;;;5066852;28;20608;-47
2022/10/27 06:25:13;;;;;;;24.88;13.15;;;11.90;99.90;;;;;;5065800;28;20056;-47
2022/10/27 06:27:39;;;;;;;28.67;13.63;;;11.90;99.90;;;;;;5067310;28;20036;-47
2022/10/27 06:30:05;;;;;;;19.02;13.38;;;12.10;99.90;;;;;;5066959;28;20375;-48
2022/10/27 06:32:35;;;;;;;24.00;14.35;;;12.00;99.90;;;;;;5081898;28;20528;-47
2022/10/27 06:35:00;;;;;;;20.85;13.23;;;12.20;99.90;;;;;;5083184;28;20464;-47
2022/10/27 06:37:26;;;;;;;22.73;12.73;;;12.40;99.90;;;;;;5086668;28;20036;-47
2022/10/27 06:39:54;;;;;;;21.35;13.60;;;12.20;99.90;;;;;;5086873;28;20048;-50
2022/10/27 06:42:21;;;;;;;20.35;12.68;;;12.20;99.90;;;;;;5086894;28;20055;-47
2022/10/27 06:44:47;;;;;;;25.00;12.13;;;12.70;99.90;;;;;;5086833;28;20556;-47
2022/10/27 06:47:13;;;;;;;21.70;13.30;;;12.40;99.90;;;;;;5087104;28;20143;-49
2022/10/27 06:49:39;;;;;;;30.13;13.02;;;12.50;99.90;;;;;;5086876;28;20154;-48
2022/10/27 06:52:04;;;;;;;21.30;12.18;;;12.40;99.90;;;;;;5086943;28;20119;-47
2022/10/27 06:54:30;;;;;;;17.42;12.00;;;12.40;99.90;;;;;;5090169;28;20035;-46
2022/10/27 06:56:56;;;;;;;20.80;11.82;;;12.60;99.90;;;;;;5090218;28;20235;-47
2022/10/27 06:59:22;;;;;;;20.17;12.60;;;12.80;99.90;;;;;;5089048;28;20451;-47
2022/10/27 07:01:47;;;;;;;17.90;12.52;;;12.60;99.90;;;;;;5090767;28;20036;-50
2022/10/27 07:04:13;;;;;;;18.67;12.30;;;12.60;99.90;;;;;;5090486;28;20044;-49
2022/10/27 07:06:39;;;;;;;23.30;12.88;;;12.80;99.90;;;;;;5090349;28;20077;-47
2022/10/27 07:09:04;;;;;;;23.02;12.52;;;12.80;99.90;;;;;;5090296;28;20094;-47
2022/10/27 07:11:30;;;;;;;20.67;11.50;;;12.90;99.90;;;;;;5089674;28;20457;-47
2022/10/27 07:13:56;;;;;;;21.98;12.02;;;13.00;99.90;;;;;;5089890;28;20066;-47
2022/10/27 07:16:21;;;;;;;19.70;11.32;;;13.00;99.90;;;;;;5079478;28;20048;-48
2022/10/27 07:18:48;;;;;;;19.10;11.77;;;13.00;99.90;;;;;;5068315;28;20139;-50
2022/10/27 07:21:14;;;;;;;16.08;11.02;;;13.60;99.90;;;;;;5069727;28;20125;-48
2022/10/27 07:23:40;;;;;;;20.00;11.40;;;13.10;99.90;;;;;;5069506;28;20048;-46
2022/10/27 07:26:06;;;;;;;21.25;11.55;;;13.20;99.90;;;;;;5069625;28;20044;-47
2022/10/27 07:28:31;;;;;;;18.00;11.43;;;13.20;99.90;;;;;;5069473;28;20405;-47
2022/10/27 07:30:58;;;;;;;18.63;11.73;;;13.20;99.90;;;;;;5069625;28;20048;-47
2022/10/27 07:33:23;;;;;;;24.33;12.52;;;13.20;99.90;;;;;;5069544;28;20047;-48
2022/10/27 07:35:51;;;;;;;18.95;10.85;;;13.60;99.90;;;;;;5069510;28;20037;-47
2022/10/27 07:38:17;;;;;;;23.70;11.48;;;13.30;99.90;;;;;;5069128;28;20481;-47
2022/10/27 07:40:43;;;;;;;17.48;10.27;;;13.30;99.90;;;;;;5068836;28;20066;-47
2022/10/27 07:43:09;;;;;;;16.38;10.07;;;13.80;99.90;;;;;;5069284;28;20048;-47
2022/10/27 07:45:40;;;;;;;15.75;10.20;;;13.50;99.90;;;;;;5069817;28;20048;-47
2022/10/27 07:48:11;;;;;;;18.45;10.98;;;13.50;99.90;;;;;;5075969;28;20418;-47
2022/10/27 07:50:36;;;;;;;16.27;10.32;;;13.50;99.90;;;;;;5077580;28;20040;-47
2022/10/27 07:53:03;;;;;;;13.05;9.13;;;13.60;99.90;;;;;;5079219;28;20400;-48
2022/10/27 07:55:31;;;;;;;15.57;9.70;;;13.60;99.90;;;;;;5079258;28;20071;-48
2022/10/27 07:58:01;;;;;;;16.00;10.18;;;14.30;99.90;;;;;;5077742;28;20074;-49
2022/10/27 08:00:28;;;;;;;17.02;9.23;;;13.90;99.90;;;;;;5078246;28;20040;-47
2022/10/27 08:02:54;;;;;;;14.98;9.68;;;13.90;99.90;;;;;;5078687;28;20518;-45
2022/10/27 08:05:20;;;;;;;15.95;10.07;;;14.70;99.90;;;;;;5077665;28;20044;-44
2022/10/27 08:07:46;;;;;;;16.60;9.25;;;14.10;99.90;;;;;;5077788;28;20032;-45
2022/10/27 08:10:11;;;;;;;12.65;9.02;;;14.20;99.90;;;;;;5078971;28;20033;-44
2022/10/27 08:12:44;;;;;;;16.92;9.02;;;13.90;99.90;;;;;;5076954;28;20079;-43
2022/10/27 08:15:10;;;;;;;15.23;9.05;;;14.40;99.90;;;;;;5077994;28;20073;-45
2022/10/27 08:17:37;;;;;;;13.70;10.35;;;14.40;99.90;;;;;;5087995;28;20134;-43
2022/10/27 08:20:04;;;;;;;11.93;7.95;;;15.00;99.90;;;;;;5069275;28;20110;-43
2022/10/27 08:22:30;;;;;;;15.23;9.20;;;14.20;99.90;;;;;;5067813;28;20051;-40
2022/10/27 08:24:55;;;;;;;14.95;9.02;;;14.30;99.90;;;;;;5068227;28;20044;-41
2022/10/27 08:27:21;;;;;;;14.20;8.55;;;14.90;99.90;;;;;;5066533;28;20048;-39
2022/10/27 08:29:47;;;;;;;15.43;8.98;;;14.80;99.90;;;;;;5085708;28;20069;-40
2022/10/27 08:32:14;;;;;;;12.50;8.60;;;14.40;99.90;;;;;;5085157;28;20071;-40
2022/10/27 08:34:40;;;;;;;16.50;9.50;;;14.50;99.90;;;;;;5084570;28;20478;-39
2022/10/27 08:37:06;;;;;;;15.07;9.75;;;14.50;99.90;;;;;;5083883;28;20078;-44
2022/10/27 08:39:32;;;;;;;14.75;8.52;;;14.60;99.90;;;;;;5087583;28;20056;-44
2022/10/27 08:42:16;;;;;;;16.42;8.88;;;15.10;99.90;;;;;;5095743;28;20503;-44
2022/10/27 08:44:59;;;;;;;12.23;8.25;;;14.50;99.90;;;;;;5095903;28;20082;-45
2022/10/27 08:47:25;;;;;;;;;;;14.60;99.90;;;;;;5093140;28;20048;-44
2022/10/27 08:49:56;;;;;;;13.45;8.35;;;14.60;99.90;;;;;;5082268;28;20003;-44
2022/10/27 08:52:54;;;;;;;13.32;8.50;;;14.70;99.90;;;;;;5090974;28;20040;-44
2022/10/27 08:55:29;;;;;;;12.75;7.97;;;14.80;99.90;;;;;;5093207;28;20110;-43
2022/10/27 08:58:08;;;;;;;13.88;8.00;;;14.90;99.90;;;;;;5093660;28;20131;-44
2022/10/27 09:00:55;;;;;;;13.02;7.07;;;15.00;99.90;;;;;;5094374;28;20040;-44
2022/10/27 09:04:13;;;;;;;12.70;9.05;;;15.10;99.90;;;;;;5096602;28;20043;-43
2022/10/27 09:06:48;;;;;;;11.60;7.45;;;15.30;99.90;;;;;;5101281;28;20051;-44
2022/10/27 09:09:30;;;;;;;10.55;6.95;;;15.40;99.90;;;;;;5105117;28;20114;-46
2022/10/27 09:12:16;;;;;;;11.00;7.47;;;15.40;99.90;;;;;;5104680;28;20518;-45
2022/10/27 09:15:06;;;;;;;11.80;7.10;;;17.40;99.90;;;;;;5104709;28;20075;-46
2022/10/27 09:17:45;;;;;;;11.23;6.90;;;15.60;99.90;;;;;;5092734;28;20492;-44
2022/10/27 09:20:42;;;;;;;10.70;6.32;;;15.70;99.90;;;;;;5084885;28;20228;-45
2022/10/27 09:23:14;;;;;;;10.70;6.13;;;15.80;99.90;;;;;;5085478;28;20035;-45
2022/10/27 09:25:41;;;;;;;8.95;5.80;;;15.80;99.90;;;;;;5076174;28;20056;-46
2022/10/27 09:28:38;;;;;;;16.63;6.72;;;15.90;99.90;;;;;;5085214;28;20046;-45
2022/10/27 09:31:04;;;;;;;11.82;7.03;;;16.00;99.90;;;;;;5063575;28;20160;-49
2022/10/27 09:33:34;;;;;;;10.18;8.50;;;15.90;99.90;;;;;;5068884;28;20116;-56
2022/10/27 09:36:12;;;;;;;10.77;7.47;;;16.50;99.90;;;;;;5075512;28;20039;-43
2022/10/27 09:38:38;;;;;;;12.85;6.75;;;16.30;99.90;;;;;;5072738;28;20167;-47
2022/10/27 09:41:03;;;;;;;10.05;5.20;;;16.30;99.90;;;;;;5072535;28;20036;-45
2022/10/27 09:43:29;;;;;;;9.63;5.60;;;16.40;99.90;;;;;;5069850;28;20048;-44
2022/10/27 09:46:09;;;;;;;13.35;5.82;;;16.40;99.90;;;;;;5072014;28;20059;-49
2022/10/27 09:48:36;;;;;;;9.82;6.60;;;16.50;99.90;;;;;;5073043;28;20489;-62
2022/10/27 09:51:09;;;;;;;18.10;9.45;;;16.80;99.90;;;;;;5074862;28;20040;-56
2022/10/27 09:53:46;;;;;;;13.95;7.20;;;16.90;99.90;;;;;;5068138;28;20066;-57
2022/10/27 09:56:22;;;;;;;10.55;5.45;;;16.80;99.90;;;;;;5054452;28;20044;-56
2022/10/27 09:58:56;;;;;;;7.72;4.00;;;17.20;99.90;;;;;;5072811;28;20055;-56
2022/10/27 10:01:24;;;;;;;11.85;3.33;;;17.10;99.90;;;;;;5072300;28;20172;-55
2022/10/27 10:04:05;;;;;;;16.08;11.57;;;17.20;99.90;;;;;;5071344;28;20043;-55
2022/10/27 10:06:35;;;;;;;21.70;18.97;;;17.20;99.90;;;;;;5073304;28;20537;-56
2022/10/27 10:09:22;;;;;;;12.73;10.43;;;17.20;99.90;;;;;;5071686;28;20066;-57
2022/10/27 10:11:48;;;;;;;8.35;4.15;;;17.30;99.90;;;;;;5070742;28;20036;-54
2022/10/27 10:14:23;;;;;;;7.07;2.65;;;17.70;99.90;;;;;;5073062;28;20391;-48
2022/10/27 10:16:49;;;;;;;3.65;2.13;;;17.40;99.90;;;;;;5075311;28;20048;-45
2022/10/27 10:19:18;;;;;;;6.03;2.70;;;17.40;99.90;;;;;;5074007;28;20092;-48
2022/10/27 10:21:48;;;;;;;4.60;2.22;;;17.50;99.90;;;;;;5073824;28;20086;-55
2022/10/27 10:24:35;;;;;;;9.13;2.65;;;17.50;99.90;;;;;;5070359;28;20467;-54
2022/10/27 10:27:03;;;;;;;6.72;2.88;;;17.60;99.90;;;;;;5047059;28;20088;-54
2022/10/27 10:29:32;;;;;;;8.50;3.08;;;17.60;99.90;;;;;;5045977;28;20371;-49
2022/10/27 10:32:21;;;;;;;4.82;2.65;;;17.70;99.90;;;;;;5043518;28;20080;-47
2022/10/27 10:34:47;;;;;;;5.18;3.28;;;17.80;99.90;;;;;;5045466;28;20032;-46
2022/10/27 10:37:33;;;;;;;5.72;2.75;;;17.90;99.90;;;;;;5049129;28;20062;-44
2022/10/27 10:40:15;;;;;;;6.75;2.40;;;17.90;99.90;;;;;;5041653;28;20724;-46
2022/10/27 10:42:45;;;;;;;6.60;2.85;;;17.90;99.90;;;;;;5048468;28;20123;-45
2022/10/27 10:45:22;;;;;;;7.65;2.92;;;17.90;99.90;;;;;;5044584;28;20037;-45
2022/10/27 10:48:00;;;;;;;6.00;2.92;;;18.00;99.90;;;;;;5050429;28;20053;-45
2022/10/27 10:50:27;;;;;;;4.97;2.03;;;18.00;99.90;;;;;;5047593;28;20040;-47
2022/10/27 10:52:56;;;;;;;4.97;2.25;;;18.00;99.90;;;;;;5046263;28;20043;-52
2022/10/27 10:55:48;;;;;;;6.43;2.67;;;18.00;99.90;;;;;;5047019;28;20029;-49
2022/10/27 10:58:19;;;;;;;12.77;2.78;;;18.00;99.90;;;;;;5044119;28;20045;-49
2022/10/27 11:00:57;;;;;;;3.67;1.70;;;18.00;99.90;;;;;;5051897;28;20124;-53
2022/10/27 11:03:27;;;;;;;6.47;1.85;;;17.90;99.90;;;;;;5031003;28;20099;-50
2022/10/27 11:05:57;;;;;;;4.97;1.85;;;17.90;99.90;;;;;;5034848;28;20047;-51
2022/10/27 11:08:42;;;;;;;8.90;3.13;;;17.90;99.90;;;;;;5050666;28;20032;-49
2022/10/27 11:11:19;;;;;;;5.35;1.70;;;18.00;99.90;;;;;;5048905;28;20126;-48
2022/10/27 11:13:55;;;;;;;4.90;1.60;;;18.10;99.90;;;;;;5048838;28;20033;-45
2022/10/27 11:16:21;;;;;;;6.60;1.27;;;18.40;99.90;;;;;;5049349;28;20048;-53
2022/10/27 11:19:03;;;;;;;4.60;1.95;;;18.30;99.90;;;;;;5036297;28;20044;-54
2022/10/27 11:21:38;;;;;;;4.78;1.48;;;18.30;99.90;;;;;;5037986;28;20053;-53
2022/10/27 11:24:30;;;;;;;2.58;1.13;;;18.30;99.90;;;;;;5049775;28;20040;-47
2022/10/27 11:27:04;;;;;;;7.20;1.35;;;18.20;99.90;;;;;;5048705;28;20041;-51
2022/10/27 11:29:47;;;;;;;6.72;1.50;;;18.70;99.90;;;;;;5048762;28;20040;-44
2022/10/27 11:32:24;;;;;;;5.88;1.38;;;18.30;99.90;;;;;;5038918;28;20139;-50
2022/10/27 11:35:30;;;;;;;3.67;1.15;;;18.30;99.90;;;;;;5021882;28;20037;-50
2022/10/27 11:38:28;;;;;;;4.47;1.40;;;18.40;99.90;;;;;;5046984;28;20101;-49
2022/10/27 11:41:04;;;;;;;4.88;1.20;;;18.30;99.90;;;;;;5054391;28;20442;-46
2022/10/27 11:43:38;;;;;;;6.72;1.70;;;18.20;99.90;;;;;;5033835;28;20099;-47
2022/10/27 11:46:47;;;;;;;3.72;1.15;;;18.10;99.90;;;;;;5056878;27;20494;-49
2022/10/27 11:49:23;;;;;;;7.38;1.80;;;18.00;99.90;;;;;;5037268;28;20154;-47
2022/10/27 11:51:58;;;;;;;7.10;1.35;;;18.00;99.90;;;;;;5056079;28;20067;-49
2022/10/27 11:54:25;;;;;;;5.28;1.80;;;17.90;99.90;;;;;;5055380;28;20033;-51
2022/10/27 11:57:04;;;;;;;4.63;1.63;;;18.00;99.90;;;;;;5063492;28;20583;-49
2022/10/27 11:59:48;;;;;;;6.22;1.77;;;18.00;99.90;;;;;;5056970;28;20126;-53
2022/10/27 12:02:51;;;;;;;5.55;0.75;;;18.00;99.90;;;;;;5060372;28;20386;-48
2022/10/27 12:05:24;;;;;;;9.25;1.35;;;18.00;99.90;;;;;;5055269;28;20351;-45
2022/10/27 12:08:03;;;;;;;7.85;1.15;;;18.00;99.90;;;;;;5054316;28;20742;-45
2022/10/27 12:10:37;;;;;;;4.85;1.10;;;18.10;99.90;;;;;;5040884;28;20045;-45
2022/10/27 12:13:08;;;;;;;4.22;1.05;;;18.10;99.90;;;;;;5039052;28;20115;-49
2022/10/27 12:15:54;;;;;;;4.10;1.00;;;18.10;99.90;;;;;;5041965;28;20045;-54
2022/10/27 12:18:35;;;;;;;9.77;0.95;;;18.10;99.90;;;;;;5042556;28;20044;-49
2022/10/27 12:21:12;;;;;;;5.43;0.68;;;18.10;99.90;;;;;;5044542;28;20084;-45
2022/10/27 12:23:51;;;;;;;4.30;0.60;;;18.10;99.90;;;;;;5046815;28;20049;-50
2022/10/27 12:26:26;;;;;;;3.63;0.70;;;18.10;99.90;;;;;;5045664;28;20045;-48
2022/10/27 12:28:53;;;;;;;7.88;0.93;;;18.10;99.90;;;;;;5042415;28;20860;-46
2022/10/27 12:31:24;;;;;;;3.92;0.80;;;18.10;99.90;;;;;;5043315;28;20080;-46
2022/10/27 12:33:56;;;;;;;3.33;0.80;;;18.10;99.90;;;;;;5037637;28;20111;-45
2022/10/27 12:36:44;;;;;;;4.70;0.80;;;18.00;99.90;;;;;;5038980;28;20044;-46
2022/10/27 12:39:32;;;;;;;5.50;0.60;;;18.00;99.90;;;;;;5054338;28;20040;-44
2022/10/27 12:42:12;;;;;;;6.00;1.00;;;17.90;99.90;;;;;;5054903;28;20151;-45
2022/10/27 12:44:45;;;;;;;5.47;0.55;;;17.80;99.90;;;;;;5055496;28;20061;-47
2022/10/27 12:47:50;;;;;;;4.13;0.70;;;17.80;99.90;;;;;;5040866;28;20056;-47
2022/10/27 12:50:15;;;;;;;6.50;0.70;;;17.70;99.90;;;;;;5027024;28;20047;-48
2022/10/27 12:53:09;;;;;;;1.88;0.63;;;17.70;99.90;;;;;;5056631;28;20675;-48